sensor_id;sensor_type;location;lat;lon;timestamp;temperature;humidity
21425;DHT22;10873;51.132;16.848;2023-03-11T00:01:19;24.10;51.70
21425;DHT22;10873;51.132;16.848;2023-03-11T00:03:45;24.10;51.70
21425;DHT22;10873;51.132;16.848;2023-03-11T00:06:11;24.00;51.70
21425;DHT22;10873;51.132;16.848;2023-03-11T00:08:38;24.00;51.70
21425;DHT22;10873;51.132;16.848;2023-03-11T00:11:03;24.10;51.80
21425;DHT22;10873;51.132;16.848;2023-03-11T00:13:30;24.00;52.40
21425;DHT22;10873;51.132;16.848;2023-03-11T00:15:57;24.10;51.70
21425;DHT22;10873;51.132;16.848;2023-03-11T00:18:27;24.10;51.70
21425;DHT22;10873;51.132;16.848;2023-03-11T00:20:56;24.10;51.70
21425;DHT22;10873;51.132;16.848;2023-03-11T00:23:23;24.10;51.70
21425;DHT22;10873;51.132;16.848;2023-03-11T00:25:50;24.10;51.60
21425;DHT22;10873;51.132;16.848;2023-03-11T00:28:16;24.20;51.70
21425;DHT22;10873;51.132;16.848;2023-03-11T00:30:43;24.10;51.60
21425;DHT22;10873;51.132;16.848;2023-03-11T00:33:11;24.10;51.50
21425;DHT22;10873;51.132;16.848;2023-03-11T00:35:38;24.20;51.50
21425;DHT22;10873;51.132;16.848;2023-03-11T00:38:07;24.20;51.50
21425;DHT22;10873;51.132;16.848;2023-03-11T00:40:36;24.20;51.50
21425;DHT22;10873;51.132;16.848;2023-03-11T00:43:02;24.20;51.40
21425;DHT22;10873;51.132;16.848;2023-03-11T00:45:29;24.20;51.40
21425;DHT22;10873;51.132;16.848;2023-03-11T00:47:55;24.20;51.40
21425;DHT22;10873;51.132;16.848;2023-03-11T00:50:24;24.20;51.40
21425;DHT22;10873;51.132;16.848;2023-03-11T00:52:52;24.10;51.30
21425;DHT22;10873;51.132;16.848;2023-03-11T00:55:21;24.10;51.40
21425;DHT22;10873;51.132;16.848;2023-03-11T00:57:50;24.10;51.40
21425;DHT22;10873;51.132;16.848;2023-03-11T01:00:17;24.10;51.40
21425;DHT22;10873;51.132;16.848;2023-03-11T01:02:44;24.10;51.40
21425;DHT22;10873;51.132;16.848;2023-03-11T01:05:11;24.10;51.30
21425;DHT22;10873;51.132;16.848;2023-03-11T01:07:38;24.10;51.30
21425;DHT22;10873;51.132;16.848;2023-03-11T01:10:07;24.10;51.30
21425;DHT22;10873;51.132;16.848;2023-03-11T01:12:34;24.10;51.30
21425;DHT22;10873;51.132;16.848;2023-03-11T01:15:00;24.10;51.30
21425;DHT22;10873;51.132;16.848;2023-03-11T01:17:27;24.00;51.30
21425;DHT22;10873;51.132;16.848;2023-03-11T01:19:53;24.00;51.30
21425;DHT22;10873;51.132;16.848;2023-03-11T01:22:19;24.00;51.30
21425;DHT22;10873;51.132;16.848;2023-03-11T01:24:45;24.00;51.40
21425;DHT22;10873;51.132;16.848;2023-03-11T01:27:13;24.00;51.40
21425;DHT22;10873;51.132;16.848;2023-03-11T01:29:38;24.00;51.40
21425;DHT22;10873;51.132;16.848;2023-03-11T01:32:05;24.00;51.30
21425;DHT22;10873;51.132;16.848;2023-03-11T01:34:32;24.00;51.30
21425;DHT22;10873;51.132;16.848;2023-03-11T01:37:01;24.00;51.20
21425;DHT22;10873;51.132;16.848;2023-03-11T01:39:27;24.00;51.20
21425;DHT22;10873;51.132;16.848;2023-03-11T01:41:53;24.00;51.20
21425;DHT22;10873;51.132;16.848;2023-03-11T01:44:22;24.00;51.20
21425;DHT22;10873;51.132;16.848;2023-03-11T01:47:29;23.90;51.10
21425;DHT22;10873;51.132;16.848;2023-03-11T01:49:56;23.90;51.10
21425;DHT22;10873;51.132;16.848;2023-03-11T01:52:22;24.00;51.20
21425;DHT22;10873;51.132;16.848;2023-03-11T01:54:48;23.90;51.10
21425;DHT22;10873;51.132;16.848;2023-03-11T01:57:14;23.90;51.10
21425;DHT22;10873;51.132;16.848;2023-03-11T01:59:45;23.90;51.10
21425;DHT22;10873;51.132;16.848;2023-03-11T02:02:17;24.00;51.10
21425;DHT22;10873;51.132;16.848;2023-03-11T02:04:44;23.90;51.00
21425;DHT22;10873;51.132;16.848;2023-03-11T02:07:11;23.90;51.00
21425;DHT22;10873;51.132;16.848;2023-03-11T02:09:37;23.90;51.00
21425;DHT22;10873;51.132;16.848;2023-03-11T02:12:05;23.90;51.00
21425;DHT22;10873;51.132;16.848;2023-03-11T02:14:34;23.90;50.90
21425;DHT22;10873;51.132;16.848;2023-03-11T02:17:02;23.90;51.00
21425;DHT22;10873;51.132;16.848;2023-03-11T02:19:38;23.90;51.00
21425;DHT22;10873;51.132;16.848;2023-03-11T02:22:06;23.90;51.00
21425;DHT22;10873;51.132;16.848;2023-03-11T02:24:39;23.90;51.00
21425;DHT22;10873;51.132;16.848;2023-03-11T02:27:10;23.90;50.90
21425;DHT22;10873;51.132;16.848;2023-03-11T02:29:37;23.90;50.80
21425;DHT22;10873;51.132;16.848;2023-03-11T02:32:07;23.90;50.80
21425;DHT22;10873;51.132;16.848;2023-03-11T02:34:36;23.90;50.80
21425;DHT22;10873;51.132;16.848;2023-03-11T02:37:04;23.90;50.80
21425;DHT22;10873;51.132;16.848;2023-03-11T02:39:33;23.90;50.70
21425;DHT22;10873;51.132;16.848;2023-03-11T02:42:01;23.90;50.70
21425;DHT22;10873;51.132;16.848;2023-03-11T02:44:30;23.80;50.60
21425;DHT22;10873;51.132;16.848;2023-03-11T02:46:56;23.90;50.70
21425;DHT22;10873;51.132;16.848;2023-03-11T02:49:23;23.80;50.60
21425;DHT22;10873;51.132;16.848;2023-03-11T02:51:49;23.80;50.60
21425;DHT22;10873;51.132;16.848;2023-03-11T02:54:15;23.90;50.60
21425;DHT22;10873;51.132;16.848;2023-03-11T02:56:41;23.80;50.50
21425;DHT22;10873;51.132;16.848;2023-03-11T02:59:07;23.80;50.50
21425;DHT22;10873;51.132;16.848;2023-03-11T03:01:35;23.90;50.40
21425;DHT22;10873;51.132;16.848;2023-03-11T03:04:01;23.80;50.20
21425;DHT22;10873;51.132;16.848;2023-03-11T03:06:27;23.80;50.10
21425;DHT22;10873;51.132;16.848;2023-03-11T03:08:53;23.80;50.00
21425;DHT22;10873;51.132;16.848;2023-03-11T03:11:20;23.80;49.70
21425;DHT22;10873;51.132;16.848;2023-03-11T03:13:46;23.80;49.70
21425;DHT22;10873;51.132;16.848;2023-03-11T03:16:12;23.80;49.50
21425;DHT22;10873;51.132;16.848;2023-03-11T03:18:39;23.80;49.40
21425;DHT22;10873;51.132;16.848;2023-03-11T03:21:06;23.80;49.20
21425;DHT22;10873;51.132;16.848;2023-03-11T03:23:32;23.80;49.10
21425;DHT22;10873;51.132;16.848;2023-03-11T03:26:00;23.80;48.90
21425;DHT22;10873;51.132;16.848;2023-03-11T03:28:27;23.80;48.80
21425;DHT22;10873;51.132;16.848;2023-03-11T03:30:53;23.80;48.70
21425;DHT22;10873;51.132;16.848;2023-03-11T03:33:19;23.80;49.30
21425;DHT22;10873;51.132;16.848;2023-03-11T03:35:46;23.80;48.60
21425;DHT22;10873;51.132;16.848;2023-03-11T03:38:12;23.70;48.60
21425;DHT22;10873;51.132;16.848;2023-03-11T03:40:38;23.80;48.60
21425;DHT22;10873;51.132;16.848;2023-03-11T03:43:05;23.80;48.60
21425;DHT22;10873;51.132;16.848;2023-03-11T03:45:31;23.80;48.50
21425;DHT22;10873;51.132;16.848;2023-03-11T03:47:57;23.80;48.50
21425;DHT22;10873;51.132;16.848;2023-03-11T03:50:23;23.80;48.50
21425;DHT22;10873;51.132;16.848;2023-03-11T03:52:50;23.80;48.30
21425;DHT22;10873;51.132;16.848;2023-03-11T03:55:16;23.80;48.30
21425;DHT22;10873;51.132;16.848;2023-03-11T03:57:42;23.80;48.30
21425;DHT22;10873;51.132;16.848;2023-03-11T04:00:10;23.80;48.10
21425;DHT22;10873;51.132;16.848;2023-03-11T04:02:36;23.80;48.20
21425;DHT22;10873;51.132;16.848;2023-03-11T04:05:03;23.70;48.00
21425;DHT22;10873;51.132;16.848;2023-03-11T04:07:29;23.80;48.00
21425;DHT22;10873;51.132;16.848;2023-03-11T04:09:56;23.80;47.80
21425;DHT22;10873;51.132;16.848;2023-03-11T04:12:22;23.80;47.60
21425;DHT22;10873;51.132;16.848;2023-03-11T04:14:49;23.80;47.50
21425;DHT22;10873;51.132;16.848;2023-03-11T04:17:15;23.80;47.50
21425;DHT22;10873;51.132;16.848;2023-03-11T04:19:42;23.80;47.30
21425;DHT22;10873;51.132;16.848;2023-03-11T04:22:08;23.80;47.30
21425;DHT22;10873;51.132;16.848;2023-03-11T04:24:34;23.80;47.20
21425;DHT22;10873;51.132;16.848;2023-03-11T04:27:02;23.80;47.10
21425;DHT22;10873;51.132;16.848;2023-03-11T04:29:28;23.80;47.10
21425;DHT22;10873;51.132;16.848;2023-03-11T04:31:54;23.80;47.00
21425;DHT22;10873;51.132;16.848;2023-03-11T04:34:20;23.80;47.10
21425;DHT22;10873;51.132;16.848;2023-03-11T04:36:46;23.80;47.00
21425;DHT22;10873;51.132;16.848;2023-03-11T04:39:14;23.80;47.00
21425;DHT22;10873;51.132;16.848;2023-03-11T04:41:40;23.80;46.90
21425;DHT22;10873;51.132;16.848;2023-03-11T04:44:08;23.80;46.90
21425;DHT22;10873;51.132;16.848;2023-03-11T04:46:34;23.80;46.80
21425;DHT22;10873;51.132;16.848;2023-03-11T04:49:00;23.90;46.70
21425;DHT22;10873;51.132;16.848;2023-03-11T04:51:26;23.80;46.60
21425;DHT22;10873;51.132;16.848;2023-03-11T04:53:52;23.80;46.60
21425;DHT22;10873;51.132;16.848;2023-03-11T04:56:18;23.80;46.50
21425;DHT22;10873;51.132;16.848;2023-03-11T04:58:44;23.80;46.50
21425;DHT22;10873;51.132;16.848;2023-03-11T05:01:11;23.80;46.50
21425;DHT22;10873;51.132;16.848;2023-03-11T05:03:37;23.80;46.50
21425;DHT22;10873;51.132;16.848;2023-03-11T05:06:04;23.80;46.40
21425;DHT22;10873;51.132;16.848;2023-03-11T05:08:30;23.80;46.30
21425;DHT22;10873;51.132;16.848;2023-03-11T05:10:56;23.90;46.20
21425;DHT22;10873;51.132;16.848;2023-03-11T05:13:23;23.80;46.00
21425;DHT22;10873;51.132;16.848;2023-03-11T05:15:48;23.80;46.10
21425;DHT22;10873;51.132;16.848;2023-03-11T05:18:16;23.80;46.10
21425;DHT22;10873;51.132;16.848;2023-03-11T05:20:42;23.80;46.00
21425;DHT22;10873;51.132;16.848;2023-03-11T05:23:08;23.80;46.00
21425;DHT22;10873;51.132;16.848;2023-03-11T05:25:34;23.80;46.10
21425;DHT22;10873;51.132;16.848;2023-03-11T05:28:01;23.80;46.10
21425;DHT22;10873;51.132;16.848;2023-03-11T05:30:27;23.80;46.10
21425;DHT22;10873;51.132;16.848;2023-03-11T05:32:53;23.80;46.10
21425;DHT22;10873;51.132;16.848;2023-03-11T05:35:22;23.80;46.10
21425;DHT22;10873;51.132;16.848;2023-03-11T05:37:48;23.90;46.10
21425;DHT22;10873;51.132;16.848;2023-03-11T05:40:15;23.80;46.00
21425;DHT22;10873;51.132;16.848;2023-03-11T05:42:41;23.80;46.00
21425;DHT22;10873;51.132;16.848;2023-03-11T05:45:08;23.80;45.90
21425;DHT22;10873;51.132;16.848;2023-03-11T05:47:35;23.80;45.90
21425;DHT22;10873;51.132;16.848;2023-03-11T05:50:01;23.80;46.00
21425;DHT22;10873;51.132;16.848;2023-03-11T05:52:29;23.80;46.00
21425;DHT22;10873;51.132;16.848;2023-03-11T05:54:57;23.80;46.00
21425;DHT22;10873;51.132;16.848;2023-03-11T05:57:23;23.80;45.90
21425;DHT22;10873;51.132;16.848;2023-03-11T05:59:49;23.80;46.00
21425;DHT22;10873;51.132;16.848;2023-03-11T06:02:15;23.80;45.90
21425;DHT22;10873;51.132;16.848;2023-03-11T06:04:42;23.80;46.00
21425;DHT22;10873;51.132;16.848;2023-03-11T06:07:08;23.80;45.90
21425;DHT22;10873;51.132;16.848;2023-03-11T06:09:38;23.80;45.90
21425;DHT22;10873;51.132;16.848;2023-03-11T06:12:04;23.80;45.80
21425;DHT22;10873;51.132;16.848;2023-03-11T06:14:30;23.80;45.70
21425;DHT22;10873;51.132;16.848;2023-03-11T06:16:58;23.80;45.70
21425;DHT22;10873;51.132;16.848;2023-03-11T06:19:23;23.80;46.40
21425;DHT22;10873;51.132;16.848;2023-03-11T06:21:50;23.80;47.40
21425;DHT22;10873;51.132;16.848;2023-03-11T06:24:16;23.80;47.70
21425;DHT22;10873;51.132;16.848;2023-03-11T06:26:44;23.70;47.90
21425;DHT22;10873;51.132;16.848;2023-03-11T06:29:12;23.80;47.80
21425;DHT22;10873;51.132;16.848;2023-03-11T06:31:39;23.70;47.70
21425;DHT22;10873;51.132;16.848;2023-03-11T06:34:05;23.70;47.50
21425;DHT22;10873;51.132;16.848;2023-03-11T06:36:32;23.70;47.40
21425;DHT22;10873;51.132;16.848;2023-03-11T06:38:58;23.70;47.20
21425;DHT22;10873;51.132;16.848;2023-03-11T06:41:24;23.70;47.10
21425;DHT22;10873;51.132;16.848;2023-03-11T06:43:52;23.70;47.00
21425;DHT22;10873;51.132;16.848;2023-03-11T06:46:19;23.70;46.90
21425;DHT22;10873;51.132;16.848;2023-03-11T06:48:45;23.70;46.70
21425;DHT22;10873;51.132;16.848;2023-03-11T06:51:13;23.70;46.50
21425;DHT22;10873;51.132;16.848;2023-03-11T06:53:39;23.70;46.50
21425;DHT22;10873;51.132;16.848;2023-03-11T06:56:06;23.70;46.40
21425;DHT22;10873;51.132;16.848;2023-03-11T06:58:34;23.60;46.30
21425;DHT22;10873;51.132;16.848;2023-03-11T07:01:04;23.70;46.30
21425;DHT22;10873;51.132;16.848;2023-03-11T07:03:30;23.60;46.20
21425;DHT22;10873;51.132;16.848;2023-03-11T07:05:57;23.70;46.10
21425;DHT22;10873;51.132;16.848;2023-03-11T07:08:23;23.70;46.50
21425;DHT22;10873;51.132;16.848;2023-03-11T07:10:59;23.60;46.40
21425;DHT22;10873;51.132;16.848;2023-03-11T07:13:26;23.60;46.30
21425;DHT22;10873;51.132;16.848;2023-03-11T07:16:04;23.70;46.20
21425;DHT22;10873;51.132;16.848;2023-03-11T07:18:30;23.60;46.00
21425;DHT22;10873;51.132;16.848;2023-03-11T07:20:57;23.70;46.00
21425;DHT22;10873;51.132;16.848;2023-03-11T07:23:23;23.60;46.00
21425;DHT22;10873;51.132;16.848;2023-03-11T07:25:50;23.70;46.00
21425;DHT22;10873;51.132;16.848;2023-03-11T07:28:17;23.70;46.00
21425;DHT22;10873;51.132;16.848;2023-03-11T07:30:44;23.60;45.90
21425;DHT22;10873;51.132;16.848;2023-03-11T07:33:12;23.60;45.90
21425;DHT22;10873;51.132;16.848;2023-03-11T07:35:39;23.60;45.90
21425;DHT22;10873;51.132;16.848;2023-03-11T07:38:05;23.60;45.80
21425;DHT22;10873;51.132;16.848;2023-03-11T07:40:31;23.60;45.80
21425;DHT22;10873;51.132;16.848;2023-03-11T07:42:57;23.60;45.80
21425;DHT22;10873;51.132;16.848;2023-03-11T07:45:23;23.60;45.80
21425;DHT22;10873;51.132;16.848;2023-03-11T07:47:49;23.60;45.70
21425;DHT22;10873;51.132;16.848;2023-03-11T07:50:17;23.60;45.70
21425;DHT22;10873;51.132;16.848;2023-03-11T07:52:43;23.60;45.70
21425;DHT22;10873;51.132;16.848;2023-03-11T07:55:10;23.50;45.70
21425;DHT22;10873;51.132;16.848;2023-03-11T07:57:35;23.60;45.70
21425;DHT22;10873;51.132;16.848;2023-03-11T08:00:02;23.60;45.70
21425;DHT22;10873;51.132;16.848;2023-03-11T08:02:28;23.60;45.70
21425;DHT22;10873;51.132;16.848;2023-03-11T08:04:55;23.60;45.70
21425;DHT22;10873;51.132;16.848;2023-03-11T08:07:22;23.60;45.70
21425;DHT22;10873;51.132;16.848;2023-03-11T08:09:48;23.60;45.70
21425;DHT22;10873;51.132;16.848;2023-03-11T08:12:15;23.60;45.90
21425;DHT22;10873;51.132;16.848;2023-03-11T08:14:41;23.60;45.80
21425;DHT22;10873;51.132;16.848;2023-03-11T08:17:08;23.60;45.70
21425;DHT22;10873;51.132;16.848;2023-03-11T08:22:33;23.60;45.60
21425;DHT22;10873;51.132;16.848;2023-03-11T08:30:59;23.60;46.10
21425;DHT22;10873;51.132;16.848;2023-03-11T08:33:25;23.60;45.50
21425;DHT22;10873;51.132;16.848;2023-03-11T08:35:52;23.50;45.50
21425;DHT22;10873;51.132;16.848;2023-03-11T08:38:20;23.60;45.50
21425;DHT22;10873;51.132;16.848;2023-03-11T08:40:45;23.50;45.50
21425;DHT22;10873;51.132;16.848;2023-03-11T08:43:12;23.50;45.60
21425;DHT22;10873;51.132;16.848;2023-03-11T08:45:39;23.50;45.60
21425;DHT22;10873;51.132;16.848;2023-03-11T08:48:06;23.50;45.60
21425;DHT22;10873;51.132;16.848;2023-03-11T08:50:32;23.50;45.60
21425;DHT22;10873;51.132;16.848;2023-03-11T08:52:58;23.50;45.50
21425;DHT22;10873;51.132;16.848;2023-03-11T08:55:29;23.50;45.50
21425;DHT22;10873;51.132;16.848;2023-03-11T08:57:55;23.50;45.50
21425;DHT22;10873;51.132;16.848;2023-03-11T09:00:22;23.40;45.50
21425;DHT22;10873;51.132;16.848;2023-03-11T09:02:48;23.50;45.60
21425;DHT22;10873;51.132;16.848;2023-03-11T09:05:15;23.50;45.70
21425;DHT22;10873;51.132;16.848;2023-03-11T09:07:46;23.40;45.70
21425;DHT22;10873;51.132;16.848;2023-03-11T09:10:14;23.40;45.70
21425;DHT22;10873;51.132;16.848;2023-03-11T09:12:42;23.50;45.80
21425;DHT22;10873;51.132;16.848;2023-03-11T09:15:09;23.50;45.70
21425;DHT22;10873;51.132;16.848;2023-03-11T09:17:35;23.50;45.50
21425;DHT22;10873;51.132;16.848;2023-03-11T09:20:02;23.50;45.40
21425;DHT22;10873;51.132;16.848;2023-03-11T09:22:28;23.50;45.40
21425;DHT22;10873;51.132;16.848;2023-03-11T09:24:55;23.50;45.30
21425;DHT22;10873;51.132;16.848;2023-03-11T09:27:21;23.50;45.20
21425;DHT22;10873;51.132;16.848;2023-03-11T09:29:49;23.50;45.20
21425;DHT22;10873;51.132;16.848;2023-03-11T09:32:15;23.50;45.10
21425;DHT22;10873;51.132;16.848;2023-03-11T09:34:41;23.50;45.00
21425;DHT22;10873;51.132;16.848;2023-03-11T09:37:08;23.50;45.10
21425;DHT22;10873;51.132;16.848;2023-03-11T09:39:33;23.50;45.10
21425;DHT22;10873;51.132;16.848;2023-03-11T09:42:02;23.50;45.10
21425;DHT22;10873;51.132;16.848;2023-03-11T09:44:42;23.50;45.10
21425;DHT22;10873;51.132;16.848;2023-03-11T09:47:40;23.50;45.10
21425;DHT22;10873;51.132;16.848;2023-03-11T09:50:21;23.50;45.10
21425;DHT22;10873;51.132;16.848;2023-03-11T09:53:04;23.50;45.10
21425;DHT22;10873;51.132;16.848;2023-03-11T09:55:37;23.50;45.10
21425;DHT22;10873;51.132;16.848;2023-03-11T09:58:11;23.50;45.10
21425;DHT22;10873;51.132;16.848;2023-03-11T10:00:38;23.40;46.40
21425;DHT22;10873;51.132;16.848;2023-03-11T10:03:13;23.50;47.00
21425;DHT22;10873;51.132;16.848;2023-03-11T10:05:43;23.50;47.70
21425;DHT22;10873;51.132;16.848;2023-03-11T10:08:18;23.50;48.30
21425;DHT22;10873;51.132;16.848;2023-03-11T10:10:50;23.40;48.70
21425;DHT22;10873;51.132;16.848;2023-03-11T10:13:24;23.40;49.20
21425;DHT22;10873;51.132;16.848;2023-03-11T10:15:59;23.40;49.80
21425;DHT22;10873;51.132;16.848;2023-03-11T10:18:38;23.50;49.90
21425;DHT22;10873;51.132;16.848;2023-03-11T10:21:11;23.50;50.40
21425;DHT22;10873;51.132;16.848;2023-03-11T10:23:55;23.50;50.80
21425;DHT22;10873;51.132;16.848;2023-03-11T10:26:28;23.70;54.30
21425;DHT22;10873;51.132;16.848;2023-03-11T10:29:01;24.00;54.60
21425;DHT22;10873;51.132;16.848;2023-03-11T10:31:30;24.30;55.00
21425;DHT22;10873;51.132;16.848;2023-03-11T10:34:03;24.70;55.00
21425;DHT22;10873;51.132;16.848;2023-03-11T10:36:37;25.10;54.50
21425;DHT22;10873;51.132;16.848;2023-03-11T10:39:05;25.50;54.40
21425;DHT22;10873;51.132;16.848;2023-03-11T10:41:40;25.90;53.70
21425;DHT22;10873;51.132;16.848;2023-03-11T10:44:12;26.30;53.20
21425;DHT22;10873;51.132;16.848;2023-03-11T10:46:38;26.60;52.80
21425;DHT22;10873;51.132;16.848;2023-03-11T10:49:10;26.90;52.50
21425;DHT22;10873;51.132;16.848;2023-03-11T10:51:39;27.20;52.10
21425;DHT22;10873;51.132;16.848;2023-03-11T10:54:05;27.50;51.70
21425;DHT22;10873;51.132;16.848;2023-03-11T10:56:34;27.80;51.10
21425;DHT22;10873;51.132;16.848;2023-03-11T10:59:02;28.10;50.30
21425;DHT22;10873;51.132;16.848;2023-03-11T11:01:29;28.30;49.70
21425;DHT22;10873;51.132;16.848;2023-03-11T11:03:57;28.50;49.10
21425;DHT22;10873;51.132;16.848;2023-03-11T11:06:28;28.70;48.70
21425;DHT22;10873;51.132;16.848;2023-03-11T11:09:14;29.00;48.30
21425;DHT22;10873;51.132;16.848;2023-03-11T11:11:41;29.20;48.00
21425;DHT22;10873;51.132;16.848;2023-03-11T11:14:08;29.30;47.50
21425;DHT22;10873;51.132;16.848;2023-03-11T11:16:35;29.50;47.20
21425;DHT22;10873;51.132;16.848;2023-03-11T11:19:03;29.70;46.90
21425;DHT22;10873;51.132;16.848;2023-03-11T11:21:33;29.80;46.50
21425;DHT22;10873;51.132;16.848;2023-03-11T11:24:09;29.90;46.50
21425;DHT22;10873;51.132;16.848;2023-03-11T11:26:36;30.00;46.30
21425;DHT22;10873;51.132;16.848;2023-03-11T11:29:12;30.20;46.20
21425;DHT22;10873;51.132;16.848;2023-03-11T11:31:40;30.30;45.90
21425;DHT22;10873;51.132;16.848;2023-03-11T11:34:26;30.40;46.20
21425;DHT22;10873;51.132;16.848;2023-03-11T11:36:55;30.30;48.00
21425;DHT22;10873;51.132;16.848;2023-03-11T11:39:26;30.00;48.10
21425;DHT22;10873;51.132;16.848;2023-03-11T11:41:54;29.70;48.40
21425;DHT22;10873;51.132;16.848;2023-03-11T11:44:21;29.40;48.30
21425;DHT22;10873;51.132;16.848;2023-03-11T11:46:56;29.20;48.20
21425;DHT22;10873;51.132;16.848;2023-03-11T11:49:24;28.90;48.10
21425;DHT22;10873;51.132;16.848;2023-03-11T11:51:57;28.60;46.70
21425;DHT22;10873;51.132;16.848;2023-03-11T11:54:29;28.40;46.20
21425;DHT22;10873;51.132;16.848;2023-03-11T11:56:58;28.20;46.20
21425;DHT22;10873;51.132;16.848;2023-03-11T11:59:26;28.00;45.80
21425;DHT22;10873;51.132;16.848;2023-03-11T12:01:59;27.90;45.30
21425;DHT22;10873;51.132;16.848;2023-03-11T12:04:47;27.80;44.90
21425;DHT22;10873;51.132;16.848;2023-03-11T12:07:25;27.60;44.40
21425;DHT22;10873;51.132;16.848;2023-03-11T12:09:59;27.50;44.30
21425;DHT22;10873;51.132;16.848;2023-03-11T12:12:32;27.30;44.20
21425;DHT22;10873;51.132;16.848;2023-03-11T12:15:07;27.30;43.90
21425;DHT22;10873;51.132;16.848;2023-03-11T12:17:36;27.20;43.70
21425;DHT22;10873;51.132;16.848;2023-03-11T12:20:08;27.00;43.50
21425;DHT22;10873;51.132;16.848;2023-03-11T12:23:02;26.90;43.30
21425;DHT22;10873;51.132;16.848;2023-03-11T12:25:37;26.80;43.30
21425;DHT22;10873;51.132;16.848;2023-03-11T12:28:14;26.70;43.40
21425;DHT22;10873;51.132;16.848;2023-03-11T12:30:43;26.60;43.20
21425;DHT22;10873;51.132;16.848;2023-03-11T12:33:14;26.60;43.20
21425;DHT22;10873;51.132;16.848;2023-03-11T12:35:48;26.50;43.20
21425;DHT22;10873;51.132;16.848;2023-03-11T12:38:25;26.40;43.00
21425;DHT22;10873;51.132;16.848;2023-03-11T12:40:58;26.30;42.80
21425;DHT22;10873;51.132;16.848;2023-03-11T12:43:27;26.30;42.90
21425;DHT22;10873;51.132;16.848;2023-03-11T12:46:15;26.20;43.00
21425;DHT22;10873;51.132;16.848;2023-03-11T12:48:43;26.10;43.00
21425;DHT22;10873;51.132;16.848;2023-03-11T12:51:37;26.10;43.00
21425;DHT22;10873;51.132;16.848;2023-03-11T12:54:21;26.00;43.00
21425;DHT22;10873;51.132;16.848;2023-03-11T12:56:53;26.00;42.90
21425;DHT22;10873;51.132;16.848;2023-03-11T12:59:48;25.90;42.80
21425;DHT22;10873;51.132;16.848;2023-03-11T13:02:29;25.80;42.70
21425;DHT22;10873;51.132;16.848;2023-03-11T13:05:09;25.80;42.80
21425;DHT22;10873;51.132;16.848;2023-03-11T13:07:45;25.70;42.80
21425;DHT22;10873;51.132;16.848;2023-03-11T13:10:16;25.60;42.80
21425;DHT22;10873;51.132;16.848;2023-03-11T13:12:44;25.60;42.70
21425;DHT22;10873;51.132;16.848;2023-03-11T13:15:33;25.60;42.70
21425;DHT22;10873;51.132;16.848;2023-03-11T13:18:01;25.40;42.50
21425;DHT22;10873;51.132;16.848;2023-03-11T13:20:50;25.40;42.50
21425;DHT22;10873;51.132;16.848;2023-03-11T13:23:31;25.40;42.50
21425;DHT22;10873;51.132;16.848;2023-03-11T13:26:28;25.30;42.40
21425;DHT22;10873;51.132;16.848;2023-03-11T13:29:09;25.20;42.40
21425;DHT22;10873;51.132;16.848;2023-03-11T13:31:47;25.20;42.30
21425;DHT22;10873;51.132;16.848;2023-03-11T13:34:29;25.10;42.30
21425;DHT22;10873;51.132;16.848;2023-03-11T13:37:15;25.10;42.40
21425;DHT22;10873;51.132;16.848;2023-03-11T13:42:47;25.00;42.20
21425;DHT22;10873;51.132;16.848;2023-03-11T13:45:27;24.90;42.20
21425;DHT22;10873;51.132;16.848;2023-03-11T13:47:57;24.90;42.30
21425;DHT22;10873;51.132;16.848;2023-03-11T13:50:43;24.80;42.30
21425;DHT22;10873;51.132;16.848;2023-03-11T13:58:34;24.70;42.00
21425;DHT22;10873;51.132;16.848;2023-03-11T14:01:01;24.70;42.10
21425;DHT22;10873;51.132;16.848;2023-03-11T14:03:30;24.70;42.10
21425;DHT22;10873;51.132;16.848;2023-03-11T14:06:01;24.60;42.00
21425;DHT22;10873;51.132;16.848;2023-03-11T14:08:29;24.60;42.00
21425;DHT22;10873;51.132;16.848;2023-03-11T14:10:57;24.60;41.90
21425;DHT22;10873;51.132;16.848;2023-03-11T14:13:25;24.60;41.80
21425;DHT22;10873;51.132;16.848;2023-03-11T14:15:58;24.60;41.90
21425;DHT22;10873;51.132;16.848;2023-03-11T14:18:31;24.50;41.90
21425;DHT22;10873;51.132;16.848;2023-03-11T14:20:58;24.50;42.00
21425;DHT22;10873;51.132;16.848;2023-03-11T14:23:28;24.50;42.00
21425;DHT22;10873;51.132;16.848;2023-03-11T14:26:04;24.50;42.00
21425;DHT22;10873;51.132;16.848;2023-03-11T14:28:34;24.50;42.00
21425;DHT22;10873;51.132;16.848;2023-03-11T14:31:03;24.50;42.00
21425;DHT22;10873;51.132;16.848;2023-03-11T14:33:29;24.50;42.00
21425;DHT22;10873;51.132;16.848;2023-03-11T14:35:56;24.50;42.00
21425;DHT22;10873;51.132;16.848;2023-03-11T14:38:25;24.50;42.00
21425;DHT22;10873;51.132;16.848;2023-03-11T14:40:54;24.50;41.90
21425;DHT22;10873;51.132;16.848;2023-03-11T14:43:21;24.50;41.90
21425;DHT22;10873;51.132;16.848;2023-03-11T14:45:49;24.40;41.70
21425;DHT22;10873;51.132;16.848;2023-03-11T14:48:20;24.40;41.70
21425;DHT22;10873;51.132;16.848;2023-03-11T14:50:48;24.40;41.50
21425;DHT22;10873;51.132;16.848;2023-03-11T14:53:17;24.30;41.40
21425;DHT22;10873;51.132;16.848;2023-03-11T14:55:48;24.40;41.40
21425;DHT22;10873;51.132;16.848;2023-03-11T14:58:20;24.30;41.20
21425;DHT22;10873;51.132;16.848;2023-03-11T15:00:50;24.30;40.90
21425;DHT22;10873;51.132;16.848;2023-03-11T15:03:22;24.30;40.70
21425;DHT22;10873;51.132;16.848;2023-03-11T15:05:53;24.30;40.40
21425;DHT22;10873;51.132;16.848;2023-03-11T15:08:21;24.30;40.30
21425;DHT22;10873;51.132;16.848;2023-03-11T15:13:51;24.30;40.10
21425;DHT22;10873;51.132;16.848;2023-03-11T15:16:24;24.30;39.90
21425;DHT22;10873;51.132;16.848;2023-03-11T15:18:52;24.30;39.80
21425;DHT22;10873;51.132;16.848;2023-03-11T15:21:20;24.30;39.70
21425;DHT22;10873;51.132;16.848;2023-03-11T15:23:49;24.30;39.70
21425;DHT22;10873;51.132;16.848;2023-03-11T15:26:19;24.30;39.70
21425;DHT22;10873;51.132;16.848;2023-03-11T15:28:53;24.30;39.70
21425;DHT22;10873;51.132;16.848;2023-03-11T15:31:29;24.30;39.70
21425;DHT22;10873;51.132;16.848;2023-03-11T15:34:23;24.30;39.70
21425;DHT22;10873;51.132;16.848;2023-03-11T15:36:57;24.30;39.70
21425;DHT22;10873;51.132;16.848;2023-03-11T15:39:27;24.30;39.80
21425;DHT22;10873;51.132;16.848;2023-03-11T15:41:59;24.30;39.80
21425;DHT22;10873;51.132;16.848;2023-03-11T15:44:30;24.20;40.40
21425;DHT22;10873;51.132;16.848;2023-03-11T15:46:57;24.20;39.70
21425;DHT22;10873;51.132;16.848;2023-03-11T15:49:28;24.20;39.80